Veresegyház, Hungary

12:01 AM CET on January 30, 2015 (GMT +0100)
Weather of Veresegyh | Change Station
CLOSE
Current Station
Personal Weather Station
Location: Veresegyhz, PEST
Elevation: 577 ft
Nearby Weather Stations

Elev 577 ft 47.65 °N, 19.29 °E | Updated 57 seconds ago

Light Snow
Light Snow Mist
33.0 °F
Feels Like 33 °F
N
0.9
Wind Variable Wind from SSE
Gusts 2.3 mph

Today
High -- | Low -- °F
--% Chance of Precip.
Yesterday
High -- | Low -- °F
Precip. -- in
7:12 AM 4:40 PM
Waxing Gibbous, 78% visible
Pressure 29.33 in
Visibility 2.5 miles
Clouds Overcast 2000 ft
Windchill 33 °F
Dew Point 30 °F
Humidity 90%
Rainfall 0.00 in
Snow Depth Not available.
UV 0.0 out of 12
Pollen Not available.
Air Quality Not available.
Flu Activity Not available.
METAR LHBP 292300Z 10007KT 4000 -SN BR OVC020 M00/M00 Q0993 R13L/650166 R13R/620173 TEMPO -FZRASN

More Conditions Fewer Conditions

Pressure 29.33 in
Visibility 2.5 miles
Clouds Overcast 2000 ft
Windchill 33 °F
Dew Point 30 °F
Humidity 90%
Rainfall 0.00 in
Snow Depth Not available.
UV 0.0 out of 12
Pollen Not available.
Air Quality Not available.
Flu Activity Not available.
METAR LHBP 292300Z 10007KT 4000 -SN BR OVC020 M00/M00 Q0993 R13L/650166 R13R/620173 TEMPO -FZRASN

More Conditions Fewer Conditions

10-Day Weather Forecast

Almanac

Astronomy

Jan. 30, 2015 Rise Set
Actual Time
Civil Twilight
Nautical Twilight
Astronomical Twilight
Moon
Length of Visible Light
Length of Day
Tomorrow will be .
, % of the Moon is Illuminated

Today's Extremes

Country Highs Country Lows

Community

WunderPhotos

Upload Photos

1,791,637 photos uploaded!

WunderBlogs® & News

Nearby

Air Quality

  Air Quality AQ Index Pollutant
Not available.

Snow Depth

Station Depth Elevation

Earthquake Activity

City Distance Mag. Time & Date
Minimum magnitude displayed is 2.5.

Coastal Water Temperatures

Place Temperature

Nearby Weather Stations